createdAt,value
2017-03-13T00:00:58.873Z,36.57
2017-03-13T00:01:58.913Z,36.79
2017-03-13T00:02:58.533Z,36.79
2017-03-13T00:03:58.567Z,36.57
2017-03-13T00:04:58.991Z,36.57
2017-03-13T00:05:58.618Z,36.57
2017-03-13T00:06:59.065Z,36.59
2017-03-13T00:07:59.074Z,36.19
2017-03-13T00:08:59.090Z,36.67
2017-03-13T00:09:59.123Z,36.67
2017-03-13T00:10:59.148Z,36.48
2017-03-13T00:11:59.178Z,36.19
2017-03-13T00:12:59.205Z,36.77
2017-03-13T00:13:59.234Z,36.67
2017-03-13T00:14:59.263Z,36.57
2017-03-13T00:15:58.888Z,36.48
2017-03-13T00:16:58.923Z,36.48
2017-03-13T00:17:59.346Z,36.57
2017-03-13T00:18:58.982Z,36.57
2017-03-13T00:19:59.407Z,36.87
2017-03-13T00:20:59.431Z,36.67
2017-03-13T00:21:59.483Z,36.77
2017-03-13T00:22:59.489Z,36.67
2017-03-13T00:23:59.509Z,36.77
2017-03-13T00:24:59.558Z,36.57
2017-03-13T00:25:59.583Z,36.38
2017-03-13T00:26:59.600Z,36.67
2017-03-13T00:27:59.636Z,36.87
2017-03-13T00:28:59.650Z,36.38
2017-03-13T00:29:59.683Z,36.57
2017-03-13T00:30:59.611Z,36.57
2017-03-13T00:31:59.736Z,36.38
2017-03-13T00:32:59.772Z,36.77
2017-03-13T00:33:59.838Z,36.77
2017-03-13T00:34:59.817Z,36.77
2017-03-13T00:35:59.699Z,36.87
2017-03-13T00:36:59.883Z,36.77
2017-03-13T00:37:59.901Z,36.77
2017-03-13T00:38:59.968Z,36.77
2017-03-13T00:39:59.964Z,36.77
2017-03-13T00:41:00.237Z,36.77
2017-03-13T00:42:00.015Z,36.87
2017-03-13T00:42:59.644Z,36.87
2017-03-13T00:43:59.689Z,36.57
2017-03-13T00:45:00.097Z,36.77
2017-03-13T00:45:59.974Z,36.87
2017-03-13T00:47:00.159Z,36.87
2017-03-13T00:47:59.791Z,36.57
2017-03-13T00:49:00.222Z,36.87
2017-03-13T00:50:00.245Z,36.77
2017-03-13T00:51:00.512Z,36.57
2017-03-13T00:52:00.293Z,36.57
2017-03-13T00:52:59.923Z,36.67
2017-03-13T00:54:00.344Z,36.57
2017-03-13T00:54:59.985Z,36.67
2017-03-13T00:56:00.659Z,36.57
2017-03-13T00:57:00.446Z,36.77
2017-03-13T00:58:00.455Z,36.67
2017-03-13T00:59:00.087Z,36.67
2017-03-13T01:00:00.521Z,36.75
2017-03-13T01:01:00.791Z,36.77
2017-03-13T01:02:00.582Z,36.55
2017-03-13T01:03:00.206Z,36.57
2017-03-13T01:04:00.631Z,36.57
2017-03-13T01:05:00.652Z,36.57
2017-03-13T01:06:00.680Z,36.55
2017-03-13T01:07:00.710Z,36.77
2017-03-13T01:08:00.731Z,36.87
2017-03-13T01:09:00.371Z,36.87
2017-03-13T01:10:00.796Z,36.77
2017-03-13T01:11:00.828Z,36.65
2017-03-13T01:12:00.453Z,36.75
2017-03-13T01:13:00.874Z,36.75
2017-03-13T01:14:00.898Z,36.67
2017-03-13T01:15:00.927Z,36.75
2017-03-13T01:16:00.968Z,36.75
2017-03-13T01:17:00.989Z,36.94
2017-03-13T01:18:01.006Z,36.94
2017-03-13T01:19:00.651Z,37.13
2017-03-13T01:20:00.672Z,37.04
2017-03-13T01:21:01.097Z,37.04
2017-03-13T01:22:01.121Z,37.04
2017-03-13T01:23:01.153Z,36.75
2017-03-13T01:24:01.194Z,36.75
2017-03-13T01:25:01.207Z,36.85
2017-03-13T01:26:01.236Z,36.75
2017-03-13T01:27:01.257Z,37.23
2017-03-13T01:28:01.294Z,36.85
2017-03-13T01:29:01.318Z,36.85
2017-03-13T01:30:00.947Z,37.04
2017-03-13T01:31:01.375Z,36.85
2017-03-13T01:32:01.397Z,37.23
2017-03-13T01:33:01.426Z,36.94
2017-03-13T01:34:01.451Z,36.85
2017-03-13T01:35:01.091Z,37.04
2017-03-13T01:36:01.528Z,36.75
2017-03-13T01:37:01.540Z,36.85
2017-03-13T01:38:01.565Z,37.04
2017-03-13T01:39:01.601Z,36.94
2017-03-13T01:40:01.238Z,37.23
2017-03-13T01:41:01.647Z,37.04
2017-03-13T01:42:01.275Z,36.94
2017-03-13T01:43:01.710Z,36.85
2017-03-13T01:44:01.729Z,36.85
2017-03-13T01:45:01.766Z,37.04
2017-03-13T01:46:01.783Z,36.94
2017-03-13T01:47:01.828Z,37.13
2017-03-13T01:48:01.841Z,37.33
2017-03-13T01:49:01.869Z,37.52
2017-03-13T01:50:01.897Z,37.23
2017-03-13T01:51:01.918Z,37.33
2017-03-13T01:52:01.955Z,37.04
2017-03-13T01:53:01.976Z,37.04
2017-03-13T01:54:02.001Z,36.85
2017-03-13T01:55:02.030Z,37.33
2017-03-13T01:56:02.063Z,37.33
2017-03-13T01:57:02.087Z,37.33
2017-03-13T01:58:01.728Z,37.33
2017-03-13T01:59:01.745Z,37.33
2017-03-13T02:00:01.773Z,37.23
2017-03-13T02:01:02.205Z,37.23
2017-03-13T02:02:02.223Z,37.33
2017-03-13T02:03:01.859Z,37.13
2017-03-13T02:04:02.285Z,37.33
2017-03-13T02:05:02.309Z,37.33
2017-03-13T02:06:02.329Z,37.13
2017-03-13T02:07:02.361Z,37.33
2017-03-13T02:08:02.391Z,37.33
2017-03-13T02:09:02.417Z,37.33
2017-03-13T02:10:02.440Z,37.33
2017-03-13T02:11:02.470Z,37.33
2017-03-13T02:12:02.351Z,37.52
2017-03-13T02:13:02.540Z,37.13
2017-03-13T02:14:02.561Z,37.13
2017-03-13T02:15:02.584Z,37.13
2017-03-13T02:16:02.609Z,37.23
2017-03-13T02:17:02.886Z,37.23
2017-03-13T02:18:02.675Z,37.23
2017-03-13T02:19:02.687Z,37.13
2017-03-13T02:20:02.721Z,37.04
2017-03-13T02:21:02.741Z,37.33
2017-03-13T02:22:03.036Z,37.13
2017-03-13T02:23:02.819Z,37.23
2017-03-13T02:24:02.832Z,37.04
2017-03-13T02:25:02.851Z,37.13
2017-03-13T02:26:02.901Z,37.23
2017-03-13T02:27:03.178Z,37.02
2017-03-13T02:28:02.948Z,37.13
2017-03-13T02:29:02.971Z,37.04
2017-03-13T02:30:02.986Z,37.21
2017-03-13T02:31:03.047Z,37.04
2017-03-13T02:32:03.302Z,36.93
2017-03-13T02:33:03.079Z,37.31
2017-03-13T02:34:03.102Z,36.94
2017-03-13T02:35:03.137Z,36.93
2017-03-13T02:36:03.180Z,37.02
2017-03-13T02:37:03.438Z,36.93
2017-03-13T02:38:03.210Z,37.02
2017-03-13T02:39:03.238Z,37.12
2017-03-13T02:40:03.262Z,37.41
2017-03-13T02:41:03.300Z,37.21
2017-03-13T02:42:03.582Z,37.12
2017-03-13T02:43:02.954Z,37.02
2017-03-13T02:44:03.370Z,37.12
2017-03-13T02:45:03.402Z,37.12
2017-03-13T02:46:03.424Z,37.6
2017-03-13T02:47:03.704Z,37.31
2017-03-13T02:48:03.485Z,37.5
2017-03-13T02:49:03.122Z,37.31
2017-03-13T02:50:03.157Z,37.41
2017-03-13T02:51:03.583Z,37.31
2017-03-13T02:52:03.844Z,37.5
2017-03-13T02:53:03.633Z,36.93
2017-03-13T02:54:03.646Z,37.6
2017-03-13T02:55:03.679Z,37.5
2017-03-13T02:56:03.308Z,37.52
2017-03-13T02:57:03.343Z,37.5
2017-03-13T02:58:03.760Z,37.12
2017-03-13T02:59:03.779Z,37.41
2017-03-13T03:00:03.815Z,37.7
2017-03-13T03:01:03.840Z,37.5
2017-03-13T03:02:03.872Z,37.6
2017-03-13T03:03:03.899Z,37.5
2017-03-13T03:04:03.921Z,37.5
2017-03-13T03:05:03.949Z,37.6
2017-03-13T03:06:03.979Z,37.5
2017-03-13T03:07:03.602Z,37.6
2017-03-13T03:08:04.030Z,37.6
2017-03-13T03:09:04.056Z,37.5
2017-03-13T03:10:03.702Z,37.6
2017-03-13T03:11:04.116Z,37.5
2017-03-13T03:12:03.771Z,37.21
2017-03-13T03:13:04.164Z,37.6
2017-03-13T03:14:04.187Z,37.5
2017-03-13T03:15:03.824Z,37.5
2017-03-13T03:16:04.250Z,37.41
2017-03-13T03:17:03.883Z,37.6
2017-03-13T03:18:04.304Z,37.5
2017-03-13T03:19:03.932Z,37.6
2017-03-13T03:20:04.361Z,37.6
2017-03-13T03:21:04.382Z,37.7
2017-03-13T03:22:04.416Z,37.5
2017-03-13T03:23:04.436Z,37.6
2017-03-13T03:24:04.473Z,37.41
2017-03-13T03:25:04.488Z,37.5
2017-03-13T03:26:04.518Z,37.6
2017-03-13T03:27:04.562Z,37.6
2017-03-13T03:28:04.601Z,37.5
2017-03-13T03:29:04.607Z,37.6
2017-03-13T03:30:04.632Z,37.7
2017-03-13T03:31:04.653Z,37.5
2017-03-13T03:32:04.684Z,37.7
2017-03-13T03:33:04.711Z,37.5
2017-03-13T03:34:04.344Z,37.41
2017-03-13T03:35:04.765Z,37.6
2017-03-13T03:36:04.798Z,37.7
2017-03-13T03:37:04.814Z,37.5
2017-03-13T03:38:04.844Z,37.7
2017-03-13T03:39:04.871Z,37.5
2017-03-13T03:40:04.513Z,37.7
2017-03-13T03:41:04.937Z,37.6
2017-03-13T03:42:04.952Z,37.6
2017-03-13T03:43:04.986Z,37.6
2017-03-13T03:44:05.015Z,37.5
2017-03-13T03:45:05.049Z,37.6
2017-03-13T03:46:05.064Z,37.5
2017-03-13T03:47:04.697Z,37.5
2017-03-13T03:48:04.725Z,37.7
2017-03-13T03:49:05.147Z,37.7
2017-03-13T03:50:05.175Z,37.7
2017-03-13T03:51:05.200Z,37.6
2017-03-13T03:52:05.221Z,37.6
2017-03-13T03:53:05.258Z,37.6
2017-03-13T03:54:05.273Z,37.7
2017-03-13T03:55:05.310Z,37.6
2017-03-13T03:56:05.336Z,37.6
2017-03-13T03:57:05.366Z,37.6
2017-03-13T03:58:04.993Z,37.41
2017-03-13T03:59:05.031Z,37.5
2017-03-13T04:00:05.060Z,37.6
2017-03-13T04:01:05.463Z,37.6
2017-03-13T04:02:05.509Z,37.5
2017-03-13T04:03:05.776Z,37.5
2017-03-13T04:04:05.166Z,37.5
2017-03-13T04:05:05.594Z,37.6
2017-03-13T04:06:05.220Z,37.5
2017-03-13T04:07:05.637Z,37.5
2017-03-13T04:08:05.909Z,37.6
2017-03-13T04:09:05.686Z,37.58
2017-03-13T04:10:05.722Z,37.6
2017-03-13T04:11:05.740Z,37.5
2017-03-13T04:12:05.780Z,37.41
2017-03-13T04:13:05.653Z,37.6
2017-03-13T04:14:05.425Z,37.6
2017-03-13T04:15:05.451Z,37.5
2017-03-13T04:16:05.482Z,37.41
2017-03-13T04:17:05.908Z,37.5
2017-03-13T04:18:06.194Z,37.48
2017-03-13T04:19:05.565Z,37.5
2017-03-13T04:20:06.005Z,37.7
2017-03-13T04:21:06.007Z,37.29
2017-03-13T04:22:05.648Z,37.48
2017-03-13T04:23:06.316Z,37.48
2017-03-13T04:24:06.097Z,37.01
2017-03-13T04:25:06.126Z,37.48
2017-03-13T04:26:06.154Z,37.01
2017-03-13T04:27:06.184Z,37.48
2017-03-13T04:28:06.055Z,37.29
2017-03-13T04:29:06.229Z,37.31
2017-03-13T04:30:05.868Z,37.29
2017-03-13T04:31:05.892Z,37.48
2017-03-13T04:32:06.307Z,37.01
2017-03-13T04:33:06.603Z,37.48
2017-03-13T04:34:05.960Z,37.29
2017-03-13T04:35:06.419Z,37.29
2017-03-13T04:36:06.413Z,37.19
2017-03-13T04:37:06.438Z,37.01
2017-03-13T04:38:06.331Z,37.01
2017-03-13T04:39:06.501Z,37.29
2017-03-13T04:40:06.524Z,37.48
2017-03-13T04:41:06.153Z,37.29
2017-03-13T04:42:06.583Z,37.29
2017-03-13T04:43:06.471Z,37.19
2017-03-13T04:44:06.649Z,37.68
2017-03-13T04:45:06.668Z,37.19
2017-03-13T04:46:06.685Z,37.1
2017-03-13T04:47:06.320Z,37.1
2017-03-13T04:48:07.007Z,37.29
2017-03-13T04:49:06.768Z,37.1
2017-03-13T04:50:06.801Z,37.1
2017-03-13T04:51:06.437Z,37.29
2017-03-13T04:52:06.854Z,37.29
2017-03-13T04:53:07.131Z,37.29
2017-03-13T04:54:06.505Z,37.19
2017-03-13T04:55:06.537Z,37.29
2017-03-13T04:56:06.957Z,37.39
2017-03-13T04:57:06.989Z,37.29
2017-03-13T04:58:07.298Z,37.1
2017-03-13T04:59:07.043Z,37.29
2017-03-13T05:00:07.067Z,37.29
2017-03-13T05:01:07.097Z,37.29
2017-03-13T05:02:07.114Z,37.29
2017-03-13T05:03:06.750Z,37.39
2017-03-13T05:04:07.170Z,37.19
2017-03-13T05:05:07.204Z,37.39
2017-03-13T05:06:07.228Z,37.29
2017-03-13T05:07:07.261Z,37.19
2017-03-13T05:08:06.909Z,37.39
2017-03-13T05:09:07.307Z,37.39
2017-03-13T05:10:06.949Z,37.39
2017-03-13T05:11:07.372Z,37.29
2017-03-13T05:12:07.397Z,37.29
2017-03-13T05:13:07.413Z,37.19
2017-03-13T05:14:07.442Z,37.48
2017-03-13T05:15:07.471Z,37.48
2017-03-13T05:16:07.499Z,37.39
2017-03-13T05:17:07.129Z,37.39
2017-03-13T05:18:07.558Z,37.39
2017-03-13T05:19:07.198Z,37.1
2017-03-13T05:20:07.606Z,37.19
2017-03-13T05:21:07.235Z,37.39
2017-03-13T05:22:07.659Z,37.19
2017-03-13T05:23:07.296Z,37.39
2017-03-13T05:24:07.709Z,37.29
2017-03-13T05:25:07.742Z,37.48
2017-03-13T05:26:07.378Z,37.19
2017-03-13T05:27:07.793Z,37.48
2017-03-13T05:28:07.417Z,37.29
2017-03-13T05:29:07.850Z,37.48
2017-03-13T05:30:07.874Z,37.29
2017-03-13T05:31:07.898Z,37.1
2017-03-13T05:32:07.940Z,37.19
2017-03-13T05:33:07.952Z,37.39
2017-03-13T05:34:07.589Z,37.29
2017-03-13T05:35:08.022Z,37.1
2017-03-13T05:36:08.045Z,37.19
2017-03-13T05:37:08.063Z,37.19
2017-03-13T05:38:07.692Z,37.29
2017-03-13T05:39:08.117Z,37.31
2017-03-13T05:40:08.143Z,37.19
2017-03-13T05:41:07.783Z,37.21
2017-03-13T05:42:08.195Z,37.41
2017-03-13T05:43:08.224Z,37.19
2017-03-13T05:44:08.265Z,37.21
2017-03-13T05:45:08.286Z,37.31
2017-03-13T05:46:08.318Z,37.31
2017-03-13T05:47:07.926Z,37.12
2017-03-13T05:48:08.371Z,37.31
2017-03-13T05:49:07.988Z,37.12
2017-03-13T05:50:08.419Z,37.12
2017-03-13T05:51:08.062Z,37.41
2017-03-13T05:52:08.479Z,37.41
2017-03-13T05:53:08.491Z,37.21
2017-03-13T05:54:08.515Z,37.12
2017-03-13T05:55:08.557Z,37.31
2017-03-13T05:56:08.574Z,37.79
2017-03-13T05:57:08.611Z,37.41
2017-03-13T05:58:08.630Z,37.7
2017-03-13T05:59:08.659Z,37.79
2017-03-13T06:00:08.680Z,37.7
2017-03-13T06:01:08.713Z,37.7
2017-03-13T06:02:08.742Z,38.18
2017-03-13T06:03:08.371Z,37.89
2017-03-13T06:04:09.040Z,37.79
2017-03-13T06:05:08.425Z,37.7
2017-03-13T06:06:08.461Z,38.08
2017-03-13T06:07:08.473Z,37.98
2017-03-13T06:08:08.895Z,37.7
2017-03-13T06:09:09.187Z,37.7
2017-03-13T06:10:08.960Z,37.98
2017-03-13T06:11:08.985Z,37.7
2017-03-13T06:12:08.607Z,38.18
2017-03-13T06:13:08.635Z,38.29
2017-03-13T06:14:09.311Z,38.39
2017-03-13T06:15:08.692Z,38.28
2017-03-13T06:16:08.725Z,38.28
2017-03-13T06:17:08.752Z,38.29
2017-03-13T06:18:09.167Z,38.39
2017-03-13T06:19:09.443Z,38.39
2017-03-13T06:20:09.275Z,38.2
2017-03-13T06:21:09.264Z,38.1
2017-03-13T06:22:09.269Z,38.1
2017-03-13T06:23:09.310Z,38.1
2017-03-13T06:24:09.577Z,38.1
2017-03-13T06:25:09.359Z,38.2
2017-03-13T06:26:09.385Z,38.01
2017-03-13T06:27:09.414Z,38.01
2017-03-13T06:28:09.442Z,38.1
2017-03-13T06:29:09.313Z,38.49
2017-03-13T06:30:09.499Z,38.39
2017-03-13T06:31:09.135Z,38.1
2017-03-13T06:32:09.544Z,38.39
2017-03-13T06:33:09.577Z,38.29
2017-03-13T06:34:09.856Z,37.71
2017-03-13T06:35:09.630Z,38.1
2017-03-13T06:36:09.660Z,38.01
2017-03-13T06:37:09.685Z,37.91
2017-03-13T06:38:09.714Z,38.1
2017-03-13T06:39:09.738Z,37.91
2017-03-13T06:40:09.763Z,38.01
2017-03-13T06:41:09.396Z,38.01
2017-03-13T06:42:09.420Z,38.12
2017-03-13T06:43:09.845Z,38.02
2017-03-13T06:44:09.874Z,37.83
2017-03-13T06:45:09.898Z,38.41
2017-03-13T06:46:09.932Z,38.21
2017-03-13T06:47:09.953Z,38.41
2017-03-13T06:48:09.993Z,38.12
2017-03-13T06:49:10.021Z,38.02
2017-03-13T06:50:10.040Z,37.63
2017-03-13T06:51:10.073Z,37.25
2017-03-13T06:52:10.092Z,37.35
2017-03-13T06:53:10.117Z,36.96
2017-03-13T06:54:10.151Z,36.77
2017-03-13T06:55:10.174Z,36.75
2017-03-13T06:56:10.207Z,36.67
2017-03-13T06:57:09.836Z,36.57
2017-03-13T06:58:10.251Z,36.57
2017-03-13T06:59:09.885Z,36.57
2017-03-13T07:00:10.306Z,36.57
2017-03-13T07:01:09.943Z,36.67
2017-03-13T07:02:10.372Z,36.67
2017-03-13T07:03:10.396Z,36.57
2017-03-13T07:04:10.024Z,36.67
2017-03-13T07:05:10.450Z,36.48
2017-03-13T07:06:10.502Z,36.57
2017-03-13T07:07:10.337Z,36.57
2017-03-13T07:08:10.555Z,36.67
2017-03-13T07:09:10.160Z,36.57
2017-03-13T07:10:10.589Z,35.9
2017-03-13T07:11:10.210Z,36.19
2017-03-13T07:12:10.635Z,36.48
2017-03-13T07:13:10.900Z,36.38
2017-03-13T07:14:10.689Z,36.38
2017-03-13T07:15:10.730Z,36.09
2017-03-13T07:16:10.742Z,35.9
2017-03-13T07:17:10.770Z,36.01
2017-03-13T07:18:10.812Z,35.16
2017-03-13T07:19:10.836Z,34.21
2017-03-13T07:20:10.461Z,33.55
2017-03-13T07:21:10.502Z,33.09
2017-03-13T07:22:10.522Z,32.52
2017-03-13T07:23:10.548Z,32.06
2017-03-13T07:24:10.969Z,31.29
2017-03-13T07:25:10.857Z,30.81
2017-03-13T07:26:11.253Z,30.44
2017-03-13T07:27:10.654Z,30.73
2017-03-13T07:28:13.175Z,29.58
2017-03-13T07:29:11.116Z,29.77
2017-03-13T07:30:11.393Z,29.3
2017-03-13T07:31:11.169Z,29.5
2017-03-13T07:32:11.197Z,28.25
2017-03-13T07:33:10.871Z,28.55
2017-03-13T07:34:11.262Z,28.45
2017-03-13T07:35:11.137Z,27.87
2017-03-13T07:36:11.309Z,27.79
2017-03-13T07:37:10.942Z,27.79
2017-03-13T07:38:10.983Z,27.5
2017-03-13T07:39:11.396Z,27.5
2017-03-13T07:40:11.675Z,28.18
2017-03-13T07:41:11.452Z,27.89
2017-03-13T07:42:11.501Z,28.36
2017-03-13T07:43:11.510Z,29.61
2017-03-13T07:44:11.155Z,29.3
2017-03-13T07:45:11.819Z,29.6
2017-03-13T07:46:11.601Z,29.68
2017-03-13T07:47:11.626Z,30.05
2017-03-13T07:48:11.655Z,30.73
2017-03-13T07:49:11.287Z,30.63
2017-03-13T07:50:11.980Z,30.73
2017-03-13T07:51:11.744Z,30.91
2017-03-13T07:52:11.389Z,30.71
2017-03-13T07:53:11.806Z,31.01
2017-03-13T07:54:11.822Z,31.01
2017-03-13T07:55:11.711Z,31.28
2017-03-13T07:56:11.884Z,31.57
2017-03-13T07:57:11.512Z,31.86
2017-03-13T07:58:11.938Z,32.06
2017-03-13T07:59:11.962Z,31.96
2017-03-13T08:00:11.863Z,32.34
2017-03-13T08:01:12.028Z,31.94
2017-03-13T08:02:12.076Z,32.33
2017-03-13T08:03:12.084Z,32.33
2017-03-13T08:04:12.114Z,32.52
2017-03-13T08:05:12.391Z,32.42
2017-03-13T08:06:12.172Z,32.71
2017-03-13T08:07:12.192Z,32.79
2017-03-13T08:08:12.229Z,33.18
2017-03-13T08:09:12.262Z,32.99
2017-03-13T08:10:12.539Z,33.18
2017-03-13T08:11:12.315Z,32.89
2017-03-13T08:12:12.340Z,33.09
2017-03-13T08:13:12.369Z,33.18
2017-03-13T08:14:12.014Z,33.28
2017-03-13T08:15:12.686Z,32.99
2017-03-13T08:16:12.455Z,33.37
2017-03-13T08:17:12.505Z,33.47
2017-03-13T08:18:12.512Z,32.97
2017-03-13T08:19:12.537Z,33.55
2017-03-13T08:20:12.814Z,33.65
2017-03-13T08:21:12.626Z,33.75
2017-03-13T08:22:12.225Z,33.65
2017-03-13T08:23:12.657Z,33.65
2017-03-13T08:24:12.689Z,33.65
2017-03-13T08:25:12.961Z,33.65
2017-03-13T08:26:12.351Z,33.65
2017-03-13T08:27:12.776Z,34.04
2017-03-13T08:28:12.401Z,33.65
2017-03-13T08:29:12.816Z,33.65
2017-03-13T08:30:12.869Z,33.55
2017-03-13T08:31:12.878Z,33.75
2017-03-13T08:32:12.518Z,34.23
2017-03-13T08:33:12.940Z,34.04
2017-03-13T08:34:12.561Z,33.94
2017-03-13T08:35:12.621Z,34.02
2017-03-13T08:36:13.017Z,33.94
2017-03-13T08:37:12.647Z,33.83
2017-03-13T08:38:13.084Z,34.04
2017-03-13T08:39:13.113Z,33.92
2017-03-13T08:40:13.133Z,34.23
2017-03-13T08:41:13.171Z,33.84
2017-03-13T08:42:13.183Z,33.94
2017-03-13T08:43:13.216Z,34.02
2017-03-13T08:44:13.244Z,33.83
2017-03-13T08:45:13.269Z,34.41
2017-03-13T08:46:12.894Z,34.41
2017-03-13T08:47:13.322Z,34.5
2017-03-13T08:48:13.347Z,34.31
2017-03-13T08:49:12.992Z,34.41
2017-03-13T08:50:13.013Z,33.92
2017-03-13T08:51:13.041Z,34.41
2017-03-13T08:52:13.468Z,34.12
2017-03-13T08:53:13.487Z,33.92
2017-03-13T08:54:13.532Z,34.04
2017-03-13T08:55:13.548Z,34.33
2017-03-13T08:56:13.609Z,33.65
2017-03-13T08:57:13.614Z,33.28
2017-03-13T08:58:13.651Z,32.79
2017-03-13T08:59:13.276Z,32.52
2017-03-13T09:00:13.696Z,32.24
2017-03-13T09:01:13.726Z,31.18
2017-03-13T09:02:13.747Z,31.18
2017-03-13T09:03:13.390Z,30.81
2017-03-13T09:04:13.424Z,30.81
2017-03-13T09:05:13.828Z,30.54
2017-03-13T09:06:13.858Z,30.34
2017-03-13T09:07:13.486Z,29.97
2017-03-13T09:08:13.526Z,28.98
2017-03-13T09:09:13.950Z,29.1
2017-03-13T09:10:13.992Z,29.1
2017-03-13T09:11:14.021Z,29
2017-03-13T09:12:14.037Z,29.38
2017-03-13T09:13:14.067Z,29.77
2017-03-13T09:14:14.098Z,29.97
2017-03-13T09:15:14.115Z,30.15
2017-03-13T09:16:14.420Z,30.63
2017-03-13T09:17:14.182Z,30.73
2017-03-13T09:18:13.801Z,30.52
2017-03-13T09:19:14.230Z,31.1
2017-03-13T09:20:13.858Z,31.1
2017-03-13T09:21:14.536Z,31.57
2017-03-13T09:22:13.919Z,31.67
2017-03-13T09:23:13.945Z,32.06
2017-03-13T09:24:13.975Z,32.06
2017-03-13T09:25:14.405Z,32.06
2017-03-13T09:26:14.286Z,32.14
2017-03-13T09:27:14.460Z,32.24
2017-03-13T09:28:14.485Z,32.33
2017-03-13T09:29:14.118Z,32.62
2017-03-13T09:30:14.558Z,32.52
2017-03-13T09:31:14.823Z,32.52
2017-03-13T09:32:14.204Z,32.91
2017-03-13T09:33:14.641Z,32.71
2017-03-13T09:34:14.653Z,32.81
2017-03-13T09:35:14.689Z,32.91
2017-03-13T09:36:14.971Z,32.79
2017-03-13T09:37:14.744Z,32.6
2017-03-13T09:38:14.375Z,32.7
2017-03-13T09:39:14.809Z,33.18
2017-03-13T09:40:14.831Z,33.18
2017-03-13T09:41:14.474Z,33.09
2017-03-13T09:42:14.883Z,32.79
2017-03-13T09:43:14.523Z,32.89
2017-03-13T09:44:14.941Z,33.09
2017-03-13T09:45:14.968Z,33.09
2017-03-13T09:46:15.002Z,33.28
2017-03-13T09:47:14.627Z,33.37
2017-03-13T09:48:14.696Z,33.09
2017-03-13T09:49:14.684Z,32.99
2017-03-13T09:50:14.709Z,33.36
2017-03-13T09:51:15.133Z,33.47
2017-03-13T09:52:15.175Z,33.47
2017-03-13T09:53:15.224Z,33.45
2017-03-13T09:54:14.827Z,33.55
2017-03-13T09:55:15.253Z,33.57
2017-03-13T09:56:15.313Z,33.47
2017-03-13T09:57:14.918Z,33.67
2017-03-13T09:58:14.971Z,33.09
2017-03-13T09:59:15.380Z,33.47
2017-03-13T10:00:15.397Z,33.47
2017-03-13T10:01:15.029Z,33.57
2017-03-13T10:02:15.454Z,33.47
2017-03-13T10:03:15.085Z,33.57
2017-03-13T10:04:15.116Z,33.28
2017-03-13T10:05:15.544Z,33.57
2017-03-13T10:06:15.582Z,32.79
2017-03-13T10:07:15.601Z,33.18
2017-03-13T10:08:15.645Z,33.18
2017-03-13T10:09:15.256Z,33.57
2017-03-13T10:10:15.672Z,33.18
2017-03-13T10:11:15.713Z,33.37
2017-03-13T10:12:15.610Z,33.09
2017-03-13T10:13:15.366Z,33.18
2017-03-13T10:14:15.392Z,33.18
2017-03-13T10:15:15.825Z,33.28
2017-03-13T10:16:15.862Z,32.89
2017-03-13T10:17:16.131Z,33.18
2017-03-13T10:18:15.931Z,33.09
2017-03-13T10:19:15.538Z,33.18
2017-03-13T10:20:15.601Z,33.18
2017-03-13T10:21:16.008Z,32.89
2017-03-13T10:22:16.271Z,32.99
2017-03-13T10:23:16.050Z,33.18
2017-03-13T10:24:15.679Z,33.28
2017-03-13T10:25:16.120Z,33.09
2017-03-13T10:26:16.133Z,33.18
2017-03-13T10:27:16.414Z,32.91
2017-03-13T10:28:16.199Z,32.99
2017-03-13T10:29:16.218Z,33.18
2017-03-13T10:30:15.851Z,32.99
2017-03-13T10:31:16.284Z,33.18
2017-03-13T10:32:16.161Z,33.18
2017-03-13T10:33:16.338Z,33.18
2017-03-13T10:34:16.363Z,32.89
2017-03-13T10:35:16.398Z,33.09
2017-03-13T10:36:16.432Z,33.28
2017-03-13T10:37:16.701Z,33.09
2017-03-13T10:38:16.485Z,33.09
2017-03-13T10:39:16.111Z,33.18
2017-03-13T10:40:16.539Z,33.09
2017-03-13T10:41:16.565Z,33.28
2017-03-13T10:42:16.444Z,33.28
2017-03-13T10:43:16.621Z,31.05
2017-03-13T10:44:16.650Z,32.31
2017-03-13T10:45:16.687Z,32.41
2017-03-13T10:46:16.703Z,31.25
2017-03-13T10:47:16.991Z,31.44
2017-03-13T10:48:16.777Z,32.41
2017-03-13T10:49:16.794Z,32.6
2017-03-13T10:50:16.819Z,32.51
2017-03-13T10:51:16.847Z,32.89
2017-03-13T10:52:16.480Z,32.31
2017-03-13T10:53:16.917Z,32.99
2017-03-13T10:54:16.942Z,32.79
2017-03-13T10:55:16.570Z,33.18
2017-03-13T10:56:17.038Z,32.89
2017-03-13T10:57:17.015Z,31.93
2017-03-13T10:58:17.077Z,30.57
2017-03-13T10:59:17.081Z,31.05
2017-03-13T11:00:17.106Z,32.02
2017-03-13T11:01:17.139Z,32.12
2017-03-13T11:02:17.199Z,32.31
2017-03-13T11:03:16.796Z,32.89
2017-03-13T11:04:17.266Z,32.89
2017-03-13T11:05:17.254Z,32.79
2017-03-13T11:06:17.283Z,33.18
2017-03-13T11:07:17.307Z,33.18
2017-03-13T11:08:17.336Z,33.18
2017-03-13T11:09:17.376Z,33.28
2017-03-13T11:10:17.397Z,33.18
2017-03-13T11:11:17.426Z,33.09
2017-03-13T11:12:17.447Z,31.05
2017-03-13T11:13:17.487Z,31.05
2017-03-13T11:14:17.508Z,31.73
2017-03-13T11:15:17.150Z,32.31
2017-03-13T11:16:17.574Z,32.6
2017-03-13T11:17:17.608Z,32.41
2017-03-13T11:18:17.627Z,32.99
2017-03-13T11:19:17.657Z,32.89
2017-03-13T11:20:17.685Z,33.09
2017-03-13T11:21:17.718Z,33.18
2017-03-13T11:22:17.738Z,32.81
2017-03-13T11:23:17.786Z,33.18
2017-03-13T11:24:17.808Z,32.89
2017-03-13T11:25:17.833Z,32.79
2017-03-13T11:26:17.869Z,32.89
2017-03-13T11:27:17.894Z,32.79
2017-03-13T11:28:17.537Z,33.1
2017-03-13T11:29:17.952Z,32.79
2017-03-13T11:30:17.966Z,32.81
2017-03-13T11:31:17.617Z,33.1
2017-03-13T11:32:18.034Z,32.81
2017-03-13T11:33:18.063Z,32.91
2017-03-13T11:34:18.098Z,32.33
2017-03-13T11:35:18.120Z,32.14
2017-03-13T11:36:18.151Z,32.52
2017-03-13T11:37:17.785Z,32.71
2017-03-13T11:38:18.207Z,32.42
2017-03-13T11:39:18.250Z,32.62
2017-03-13T11:40:18.280Z,32.52
2017-03-13T11:41:18.297Z,32.81
2017-03-13T11:42:17.930Z,32.71
2017-03-13T11:43:18.354Z,32.24
2017-03-13T11:44:18.380Z,31.65
2017-03-13T11:45:18.015Z,30.98
2017-03-13T11:46:18.444Z,30.69
2017-03-13T11:47:18.493Z,30.89
2017-03-13T11:48:18.498Z,31.76
2017-03-13T11:49:18.523Z,31.96
2017-03-13T11:50:18.559Z,32.34
2017-03-13T11:51:18.589Z,30.89
2017-03-13T11:52:18.657Z,30.79
2017-03-13T11:53:18.658Z,31.37
2017-03-13T11:54:18.683Z,31.67
2017-03-13T11:55:18.703Z,32.24
2017-03-13T11:56:18.748Z,32.06
2017-03-13T11:57:18.775Z,32.15
2017-03-13T11:58:18.801Z,32.54
2017-03-13T11:59:18.826Z,30.6
2017-03-13T12:00:18.870Z,30.81
2017-03-13T12:01:18.888Z,31.1
2017-03-13T12:02:18.928Z,31.1
2017-03-13T12:03:18.945Z,31.49
2017-03-13T12:04:18.970Z,31.49
2017-03-13T12:05:18.602Z,31.49
2017-03-13T12:06:19.023Z,31.41
2017-03-13T12:07:18.672Z,31.12
2017-03-13T12:08:19.093Z,31.12
2017-03-13T12:09:19.114Z,30.34
2017-03-13T12:10:19.139Z,30.26
2017-03-13T12:11:19.196Z,30.07
2017-03-13T12:12:18.810Z,29.19
2017-03-13T12:13:19.245Z,28.43
2017-03-13T12:14:19.270Z,28.43
2017-03-13T12:15:19.298Z,28.81
2017-03-13T12:16:19.321Z,29.5
2017-03-13T12:17:19.352Z,29.41
2017-03-13T12:18:19.387Z,27.47
2017-03-13T12:19:19.415Z,27.67
2017-03-13T12:20:19.065Z,27.58
2017-03-13T12:21:19.483Z,27.48
2017-03-13T12:22:19.519Z,27.58
2017-03-13T12:23:19.536Z,27.29
2017-03-13T12:24:19.578Z,25.35
2017-03-13T12:25:19.622Z,25.35
2017-03-13T12:26:19.634Z,24.97
2017-03-13T12:27:19.671Z,24.97
2017-03-13T12:28:19.549Z,25.75
2017-03-13T12:29:19.732Z,25.46
2017-03-13T12:30:19.366Z,25.85
2017-03-13T12:31:19.391Z,26.43
2017-03-13T12:32:19.811Z,27.01
2017-03-13T12:33:20.108Z,27.21
2017-03-13T12:34:19.894Z,26.73
2017-03-13T12:35:19.921Z,24.98
2017-03-13T12:36:19.543Z,24.98
2017-03-13T12:37:19.972Z,24.98
2017-03-13T12:38:19.858Z,25.96
2017-03-13T12:39:20.044Z,25.96
2017-03-13T12:40:19.677Z,25.87
2017-03-13T12:41:20.130Z,25.97
2017-03-13T12:42:20.139Z,25.97
2017-03-13T12:43:20.019Z,25.38
2017-03-13T12:44:19.784Z,25.38
2017-03-13T12:45:19.826Z,25.79
2017-03-13T12:46:20.246Z,25.1
2017-03-13T12:47:20.292Z,25.01
2017-03-13T12:48:20.579Z,25.1
2017-03-13T12:49:20.340Z,25.9
2017-03-13T12:50:20.377Z,25.9
2017-03-13T12:51:20.405Z,25.51
2017-03-13T12:54:10.257Z,24.54
2017-03-13T12:54:19.935Z,25.03
2017-03-13T12:55:20.331Z,25.13
2017-03-13T12:56:20.382Z,24.55
2017-03-13T12:57:19.998Z,23.86
2017-03-13T12:58:20.422Z,23.47